createdAt,value
2018-09-01T00:00:21.793Z,1009.74
2018-09-01T00:01:21.813Z,1009.78
2018-09-01T00:02:21.829Z,1009.76
2018-09-01T00:03:21.848Z,1009.78
2018-09-01T00:04:21.877Z,1009.79
2018-09-01T00:05:21.879Z,1009.83
2018-09-01T00:06:21.897Z,1009.79
2018-09-01T00:07:21.936Z,1009.81
2018-09-01T00:08:21.934Z,1009.83
2018-09-01T00:09:21.948Z,1009.84
2018-09-01T00:10:21.967Z,1009.84
2018-09-01T00:11:22.004Z,1009.81
2018-09-01T00:12:22.000Z,1009.83
2018-09-01T00:13:22.022Z,1009.82
2018-09-01T00:14:22.034Z,1009.82
2018-09-01T00:15:22.060Z,1009.81
2018-09-01T00:16:22.072Z,1009.85
2018-09-01T00:17:22.083Z,1009.86
2018-09-01T00:18:22.103Z,1009.86
2018-09-01T00:19:22.157Z,1009.86
2018-09-01T00:20:22.143Z,1009.88
2018-09-01T00:21:22.158Z,1009.90
2018-09-01T00:22:22.185Z,1009.85
2018-09-01T00:23:22.190Z,1009.90
2018-09-01T00:24:22.208Z,1009.90
2018-09-01T00:25:22.225Z,1009.94
2018-09-01T00:26:22.239Z,1009.93
2018-09-01T00:27:22.258Z,1009.93
2018-09-01T00:28:22.277Z,1009.91
2018-09-01T00:29:22.296Z,1009.92
2018-09-01T00:30:22.316Z,1009.91
2018-09-01T00:31:22.331Z,1009.91
2018-09-01T00:32:22.344Z,1009.87
2018-09-01T00:33:22.360Z,1009.86
2018-09-01T00:34:22.377Z,1009.86
2018-09-01T00:35:22.399Z,1009.87
2018-09-01T00:36:22.414Z,1009.89
2018-09-01T00:37:22.467Z,1009.86
2018-09-01T00:38:22.446Z,1009.92
2018-09-01T00:39:22.463Z,1009.90
2018-09-01T00:40:22.487Z,1009.94
2018-09-01T00:41:22.497Z,1009.91
2018-09-01T00:42:22.513Z,1009.95
2018-09-01T00:43:22.531Z,1009.97
2018-09-01T00:44:22.552Z,1009.96
2018-09-01T00:45:22.572Z,1009.97
2018-09-01T00:46:22.597Z,1009.96
2018-09-01T00:47:22.600Z,1009.97
2018-09-01T00:48:22.616Z,1010.02
2018-09-01T00:49:22.635Z,1010.02
2018-09-01T00:50:22.651Z,1010.00
2018-09-01T00:51:22.669Z,1010.04
2018-09-01T00:52:22.692Z,1010.01
2018-09-01T00:53:22.701Z,1010.04
2018-09-01T00:54:22.719Z,1010.04
2018-09-01T00:55:22.738Z,1010.03
2018-09-01T00:56:22.784Z,1010.04
2018-09-01T00:57:22.779Z,1010.01
2018-09-01T00:58:22.788Z,1010.03
2018-09-01T00:59:22.824Z,1010.02
2018-09-01T01:00:22.847Z,1010.00
2018-09-01T01:01:22.874Z,1010.02
2018-09-01T01:02:22.872Z,1010.03
2018-09-01T01:03:22.884Z,1010.01
2018-09-01T01:04:22.888Z,1010.03
2018-09-01T01:05:22.907Z,1010.04
2018-09-01T01:06:22.930Z,1010.06
2018-09-01T01:07:22.951Z,1010.05
2018-09-01T01:08:22.963Z,1010.05
2018-09-01T01:09:22.977Z,1010.07
2018-09-01T01:10:23.002Z,1010.07
2018-09-01T01:11:23.020Z,1010.07
2018-09-01T01:12:23.033Z,1010.05
2018-09-01T01:13:23.041Z,1010.06
2018-09-01T01:14:23.062Z,1010.07
2018-09-01T01:15:23.078Z,1010.09
2018-09-01T01:16:23.102Z,1010.08
2018-09-01T01:17:23.152Z,1010.12
2018-09-01T01:18:23.129Z,1010.11
2018-09-01T01:19:23.151Z,1010.14
2018-09-01T01:20:23.164Z,1010.13
2018-09-01T01:21:23.187Z,1010.12
2018-09-01T01:22:23.210Z,1010.11
2018-09-01T01:23:23.213Z,1010.09
2018-09-01T01:24:23.265Z,1010.11
2018-09-01T01:25:23.295Z,1010.12
2018-09-01T01:26:23.264Z,1010.12
2018-09-01T01:27:23.317Z,1010.15
2018-09-01T01:28:23.296Z,1010.13
2018-09-01T01:29:23.318Z,1010.11
2018-09-01T01:30:23.340Z,1010.08
2018-09-01T01:31:23.347Z,1010.10
2018-09-01T01:32:23.401Z,1010.09
2018-09-01T01:33:23.432Z,1010.07
2018-09-01T01:34:23.397Z,1010.09
2018-09-01T01:35:23.416Z,1010.10
2018-09-01T01:36:23.498Z,1010.10
2018-09-01T01:37:23.454Z,1010.07
2018-09-01T01:38:23.474Z,1010.09
2018-09-01T01:39:23.507Z,1010.06
2018-09-01T01:40:23.503Z,1010.06
2018-09-01T01:41:23.521Z,1010.08
2018-09-01T01:42:23.537Z,1010.07
2018-09-01T01:43:23.558Z,1010.06
2018-09-01T01:44:23.566Z,1010.02
2018-09-01T01:45:23.588Z,1010.07
2018-09-01T01:46:23.604Z,1010.03
2018-09-01T01:47:23.616Z,1010.06
2018-09-01T01:48:23.636Z,1010.04
2018-09-01T01:49:23.667Z,1010.04
2018-09-01T01:50:23.669Z,1010.00
2018-09-01T01:51:23.687Z,1010.03
2018-09-01T01:52:23.701Z,1010.03
2018-09-01T01:53:23.718Z,1009.99
2018-09-01T01:54:23.736Z,1010.01
2018-09-01T01:55:23.770Z,1009.98
2018-09-01T01:56:23.769Z,1009.99
2018-09-01T01:57:23.786Z,1010.00
2018-09-01T01:58:23.803Z,1010.01
2018-09-01T01:59:23.829Z,1009.99
2018-09-01T02:00:23.845Z,1010.00
2018-09-01T02:01:23.854Z,1010.04
2018-09-01T02:02:23.869Z,1010.01
2018-09-01T02:03:23.887Z,1010.03
2018-09-01T02:04:23.905Z,1009.95
2018-09-01T02:05:23.926Z,1009.99
2018-09-01T02:06:23.936Z,1010.01
2018-09-01T02:07:23.955Z,1009.99
2018-09-01T02:08:23.969Z,1009.98
2018-09-01T02:09:23.993Z,1009.99
2018-09-01T02:10:24.006Z,1009.96
2018-09-01T02:11:24.022Z,1009.96
2018-09-01T02:12:24.038Z,1009.98
2018-09-01T02:13:24.059Z,1009.98
2018-09-01T02:14:24.072Z,1010.00
2018-09-01T02:15:24.090Z,1010.02
2018-09-01T02:16:24.105Z,1009.98
2018-09-01T02:17:24.123Z,1009.96
2018-09-01T02:18:24.140Z,1009.97
2018-09-01T02:19:24.154Z,1009.95
2018-09-01T02:20:24.172Z,1009.93
2018-09-01T02:21:24.196Z,1009.95
2018-09-01T02:22:24.208Z,1009.95
2018-09-01T02:23:24.222Z,1010.01
2018-09-01T02:24:24.242Z,1010.00
2018-09-01T02:25:24.257Z,1009.99
2018-09-01T02:26:24.273Z,1009.94
2018-09-01T02:27:24.289Z,1009.94
2018-09-01T02:28:24.314Z,1009.93
2018-09-01T02:29:24.322Z,1009.93
2018-09-01T02:30:24.337Z,1009.95
2018-09-01T02:31:24.366Z,1009.98
2018-09-01T02:32:24.383Z,1009.98
2018-09-01T02:33:24.394Z,1010.02
2018-09-01T02:34:24.408Z,1010.03
2018-09-01T02:35:24.458Z,1010.04
2018-09-01T02:36:24.440Z,1010.04
2018-09-01T02:37:24.463Z,1010.05
2018-09-01T02:38:24.478Z,1010.03
2018-09-01T02:39:24.493Z,1010.06
2018-09-01T02:40:24.505Z,1010.07
2018-09-01T02:41:24.524Z,1010.09
2018-09-01T02:42:24.541Z,1010.08
2018-09-01T02:43:24.564Z,1010.10
2018-09-01T02:44:24.595Z,1010.10
2018-09-01T02:45:24.591Z,1010.12
2018-09-01T02:46:24.609Z,1010.13
2018-09-01T02:47:24.674Z,1010.13
2018-09-01T02:48:24.643Z,1010.13
2018-09-01T02:49:24.658Z,1010.16
2018-09-01T02:50:24.674Z,1010.17
2018-09-01T02:51:24.701Z,1010.18
2018-09-01T02:52:24.710Z,1010.12
2018-09-01T02:53:24.723Z,1010.15
2018-09-01T02:54:24.741Z,1010.12
2018-09-01T02:55:24.759Z,1010.13
2018-09-01T02:56:24.773Z,1010.12
2018-09-01T02:57:24.788Z,1010.12
2018-09-01T02:58:24.810Z,1010.11
2018-09-01T02:59:24.823Z,1010.13
2018-09-01T03:00:24.840Z,1010.08
2018-09-01T03:01:24.863Z,1010.10
2018-09-01T03:02:24.872Z,1010.10
2018-09-01T03:03:24.891Z,1010.08
2018-09-01T03:04:24.924Z,1010.08
2018-09-01T03:05:24.931Z,1010.07
2018-09-01T03:06:24.945Z,1010.05
2018-09-01T03:07:24.969Z,1010.08
2018-09-01T03:08:24.981Z,1010.07
2018-09-01T03:09:24.991Z,1010.10
2018-09-01T03:10:25.008Z,1010.10
2018-09-01T03:11:25.028Z,1010.07
2018-09-01T03:12:25.041Z,1010.05
2018-09-01T03:13:25.059Z,1010.05
2018-09-01T03:14:25.075Z,1010.05
2018-09-01T03:15:25.090Z,1010.09
2018-09-01T03:16:25.108Z,1010.07
2018-09-01T03:17:25.127Z,1010.07
2018-09-01T03:18:25.140Z,1010.07
2018-09-01T03:19:25.155Z,1010.04
2018-09-01T03:20:25.174Z,1010.04
2018-09-01T03:21:25.189Z,1010.06
2018-09-01T03:22:25.204Z,1010.08
2018-09-01T03:23:25.225Z,1010.11
2018-09-01T03:24:25.241Z,1010.07
2018-09-01T03:25:25.255Z,1010.07
2018-09-01T03:26:25.272Z,1010.12
2018-09-01T03:27:25.287Z,1010.10
2018-09-01T03:28:25.308Z,1010.15
2018-09-01T03:29:25.324Z,1010.14
2018-09-01T03:30:25.341Z,1010.14
2018-09-01T03:31:25.360Z,1010.13
2018-09-01T03:32:25.386Z,1010.13
2018-09-01T03:33:25.391Z,1010.17
2018-09-01T03:34:25.410Z,1010.21
2018-09-01T03:35:25.459Z,1010.23
2018-09-01T03:36:25.440Z,1010.17
2018-09-01T03:37:25.457Z,1010.18
2018-09-01T03:38:25.477Z,1010.19
2018-09-01T03:39:25.488Z,1010.20
2018-09-01T03:40:25.504Z,1010.16
2018-09-01T03:41:25.523Z,1010.15
2018-09-01T03:42:25.538Z,1010.16
2018-09-01T03:43:25.554Z,1010.18
2018-09-01T03:44:25.579Z,1010.20
2018-09-01T03:45:25.589Z,1010.21
2018-09-01T03:46:25.607Z,1010.16
2018-09-01T03:47:25.625Z,1010.18
2018-09-01T03:48:25.637Z,1010.19
2018-09-01T03:49:25.653Z,1010.17
2018-09-01T03:50:25.670Z,1010.16
2018-09-01T03:51:25.685Z,1010.18
2018-09-01T03:52:25.701Z,1010.20
2018-09-01T03:53:25.738Z,1010.23
2018-09-01T03:54:25.746Z,1010.20
2018-09-01T03:55:25.755Z,1010.24
2018-09-01T03:56:25.768Z,1010.24
2018-09-01T03:57:25.784Z,1010.27
2018-09-01T03:58:25.800Z,1010.28
2018-09-01T03:59:25.819Z,1010.23
2018-09-01T04:00:25.835Z,1010.26
2018-09-01T04:01:25.851Z,1010.31
2018-09-01T04:02:25.869Z,1010.30
2018-09-01T04:03:25.884Z,1010.34
2018-09-01T04:04:25.904Z,1010.33
2018-09-01T04:05:25.917Z,1010.34
2018-09-01T04:06:25.934Z,1010.34
2018-09-01T04:07:25.950Z,1010.32
2018-09-01T04:08:25.969Z,1010.35
2018-09-01T04:09:25.985Z,1010.41
2018-09-01T04:10:26.000Z,1010.41
2018-09-01T04:11:26.016Z,1010.44
2018-09-01T04:12:26.034Z,1010.42
2018-09-01T04:13:26.052Z,1010.43
2018-09-01T04:14:26.070Z,1010.48
2018-09-01T04:15:26.097Z,1010.44
2018-09-01T04:16:26.098Z,1010.45
2018-09-01T04:17:26.112Z,1010.46
2018-09-01T04:18:26.131Z,1010.45
2018-09-01T04:19:26.149Z,1010.43
2018-09-01T04:20:26.170Z,1010.49
2018-09-01T04:21:26.177Z,1010.48
2018-09-01T04:22:26.199Z,1010.48
2018-09-01T04:23:26.215Z,1010.51
2018-09-01T04:24:26.231Z,1010.48
2018-09-01T04:25:26.244Z,1010.51
2018-09-01T04:26:26.262Z,1010.51
2018-09-01T04:27:26.284Z,1010.53
2018-09-01T04:28:26.301Z,1010.52
2018-09-01T04:29:26.310Z,1010.56
2018-09-01T04:30:26.327Z,1010.58
2018-09-01T04:31:26.344Z,1010.56
2018-09-01T04:32:26.362Z,1010.59
2018-09-01T04:33:26.377Z,1010.58
2018-09-01T04:34:26.395Z,1010.65
2018-09-01T04:35:26.408Z,1010.61
2018-09-01T04:36:26.428Z,1010.62
2018-09-01T04:37:26.442Z,1010.61
2018-09-01T04:38:26.456Z,1010.59
2018-09-01T04:39:26.475Z,1010.69
2018-09-01T04:40:26.496Z,1010.72
2018-09-01T04:41:26.507Z,1010.71
2018-09-01T04:42:26.524Z,1010.71
2018-09-01T04:43:26.542Z,1010.74
2018-09-01T04:44:26.559Z,1010.77
2018-09-01T04:45:26.572Z,1010.77
2018-09-01T04:46:26.592Z,1010.81
2018-09-01T04:47:26.607Z,1010.80
2018-09-01T04:48:26.619Z,1010.83
2018-09-01T04:49:26.643Z,1010.84
2018-09-01T04:50:26.656Z,1010.81
2018-09-01T04:51:26.691Z,1010.84
2018-09-01T04:52:26.690Z,1010.87
2018-09-01T04:53:26.703Z,1010.86
2018-09-01T04:54:26.724Z,1010.89
2018-09-01T04:55:26.739Z,1010.92
2018-09-01T04:56:26.754Z,1010.91
2018-09-01T04:57:26.771Z,1010.94
2018-09-01T04:58:26.792Z,1010.96
2018-09-01T04:59:26.804Z,1011.00
2018-09-01T05:00:26.821Z,1011.02
2018-09-01T05:01:26.977Z,1011.01
2018-09-01T05:02:26.865Z,1011.06
2018-09-01T05:03:26.881Z,1011.09
2018-09-01T05:04:26.907Z,1011.10
2018-09-01T05:05:26.906Z,1011.09
2018-09-01T05:06:26.920Z,1011.11
2018-09-01T05:07:26.940Z,1011.17
2018-09-01T05:08:26.980Z,1011.14
2018-09-01T05:09:26.969Z,1011.19
2018-09-01T05:10:26.987Z,1011.18
2018-09-01T05:11:27.004Z,1011.18
2018-09-01T05:12:27.018Z,1011.16
2018-09-01T05:13:27.036Z,1011.12
2018-09-01T05:14:27.050Z,1011.11
2018-09-01T05:15:27.067Z,1011.11
2018-09-01T05:16:27.088Z,1011.18
2018-09-01T05:17:27.103Z,1011.25
2018-09-01T05:18:27.121Z,1011.37
2018-09-01T05:19:27.138Z,1011.43
2018-09-01T05:20:27.162Z,1011.49
2018-09-01T05:21:27.170Z,1011.54
2018-09-01T05:22:27.186Z,1011.59
2018-09-01T05:23:27.206Z,1011.62
2018-09-01T05:24:27.220Z,1011.67
2018-09-01T05:25:27.236Z,1011.69
2018-09-01T05:26:27.257Z,1011.75
2018-09-01T05:27:27.280Z,1011.77
2018-09-01T05:28:27.295Z,1011.75
2018-09-01T05:29:27.316Z,1011.76
2018-09-01T05:30:27.336Z,1011.78
2018-09-01T05:31:27.351Z,1011.83
2018-09-01T05:32:27.366Z,1011.85
2018-09-01T05:33:27.382Z,1011.87
2018-09-01T05:34:27.411Z,1011.90
2018-09-01T05:35:27.442Z,1011.93
2018-09-01T05:36:27.509Z,1011.93
2018-09-01T05:37:27.471Z,1011.93
2018-09-01T05:38:27.481Z,1011.91
2018-09-01T05:39:27.500Z,1011.94
2018-09-01T05:40:27.534Z,1011.89
2018-09-01T05:41:27.549Z,1011.97
2018-09-01T05:42:27.561Z,1012.00
2018-09-01T05:43:27.581Z,1012.03
2018-09-01T05:44:27.604Z,1012.03
2018-09-01T05:45:27.621Z,1012.10
2018-09-01T05:46:27.649Z,1012.16
2018-09-01T05:47:27.664Z,1012.18
2018-09-01T05:48:27.684Z,1012.24
2018-09-01T05:49:27.704Z,1012.22
2018-09-01T05:50:27.726Z,1012.29
2018-09-01T05:51:27.751Z,1012.39
2018-09-01T05:52:27.775Z,1012.42
2018-09-01T05:53:27.794Z,1012.47
2018-09-01T05:54:27.811Z,1012.52
2018-09-01T05:55:27.835Z,1012.59
2018-09-01T05:56:27.869Z,1012.66
2018-09-01T05:57:27.875Z,1012.65
2018-09-01T05:58:27.901Z,1012.67
2018-09-01T05:59:27.924Z,1012.68
2018-09-01T06:00:27.952Z,1012.74
2018-09-01T06:01:27.977Z,1012.86
2018-09-01T06:02:27.993Z,1012.88
2018-09-01T06:03:28.019Z,1012.94
2018-09-01T06:04:28.035Z,1013.07
2018-09-01T06:05:28.059Z,1013.09
2018-09-01T06:06:28.171Z,1013.11
2018-09-01T06:07:28.108Z,1013.17
2018-09-01T06:08:28.124Z,1013.17
2018-09-01T06:09:28.148Z,1013.32
2018-09-01T06:10:28.171Z,1013.36
2018-09-01T06:11:28.192Z,1013.38
2018-09-01T06:12:28.230Z,1013.49
2018-09-01T06:13:28.244Z,1013.68
2018-09-01T06:14:28.265Z,1013.84
2018-09-01T06:15:28.291Z,1013.94
2018-09-01T06:16:28.313Z,1014.07
2018-09-01T06:17:28.347Z,1014.16
2018-09-01T06:18:28.354Z,1014.29
2018-09-01T06:19:28.384Z,1014.61
2018-09-01T06:20:28.412Z,1014.78
2018-09-01T06:21:28.437Z,1014.68
2018-09-01T06:22:28.451Z,1014.75
2018-09-01T06:23:28.486Z,1014.82
2018-09-01T06:24:28.500Z,1014.87
2018-09-01T06:25:28.523Z,1014.63
2018-09-01T06:26:28.551Z,1014.43
2018-09-01T06:27:28.577Z,1014.75
2018-09-01T06:28:28.598Z,1014.91
2018-09-01T06:29:28.622Z,1015.09
2018-09-01T06:30:28.641Z,1015.33
2018-09-01T06:31:28.674Z,1015.38
2018-09-01T06:32:28.689Z,1015.29
2018-09-01T06:33:28.716Z,1015.65
2018-09-01T06:34:28.741Z,1015.79
2018-09-01T06:35:28.767Z,1015.80
2018-09-01T06:36:28.803Z,1015.88
2018-09-01T06:37:28.829Z,1016.02
2018-09-01T06:38:28.843Z,1016.25
2018-09-01T06:39:28.875Z,1016.54
2018-09-01T06:40:28.891Z,1016.62
2018-09-01T06:41:28.920Z,1016.70
2018-09-01T06:42:28.937Z,1017.45
2018-09-01T06:43:28.974Z,1017.40
2018-09-01T06:44:29.031Z,1017.06
2018-09-01T06:45:29.014Z,1017.29
2018-09-01T06:46:29.040Z,1017.09
2018-09-01T06:47:29.067Z,1017.38
2018-09-01T06:48:29.090Z,1018.30
2018-09-01T06:49:29.117Z,1018.85
2018-09-01T06:50:29.141Z,1018.99
2018-09-01T06:51:29.209Z,1018.92
2018-09-01T06:52:29.197Z,1018.94
2018-09-01T06:53:29.221Z,1019.32
2018-09-01T06:54:29.242Z,1020.02
2018-09-01T06:55:29.271Z,1020.82
2018-09-01T06:56:29.295Z,1020.99
2018-09-01T06:57:29.320Z,1020.63
2018-09-01T06:58:29.348Z,1021.18
2018-09-01T06:59:29.396Z,1021.49
2018-09-01T07:00:29.400Z,1021.80
2018-09-01T07:01:29.431Z,1021.74
2018-09-01T07:02:29.468Z,1021.75
2018-09-01T07:03:29.477Z,1022.08
2018-09-01T07:04:29.499Z,1022.55
2018-09-01T07:05:29.551Z,1022.41
2018-09-01T07:06:29.563Z,1023.16
2018-09-01T07:07:29.578Z,1025.09
2018-09-01T07:08:29.608Z,1025.51
2018-09-01T07:09:29.630Z,1024.90
2018-09-01T07:10:29.652Z,1025.19
2018-09-01T07:11:29.681Z,1025.88
2018-09-01T07:12:29.708Z,1025.66
2018-09-01T07:13:29.732Z,1026.37
2018-09-01T07:14:29.760Z,1027.31
2018-09-01T07:15:29.783Z,1027.16
2018-09-01T07:16:29.811Z,1027.27
2018-09-01T07:17:29.834Z,1027.90
2018-09-01T07:18:29.861Z,1029.59
2018-09-01T07:19:29.895Z,1029.20
2018-09-01T07:20:29.909Z,1027.56
2018-09-01T07:21:29.939Z,1027.71
2018-09-01T07:22:29.979Z,1028.39
2018-09-01T07:23:29.989Z,1028.43
2018-09-01T07:24:30.017Z,1027.52
2018-09-01T07:25:30.043Z,1030.36
2018-09-01T07:26:30.075Z,1031.19
2018-09-01T07:27:30.102Z,1030.26
2018-09-01T07:28:30.122Z,1029.91
2018-09-01T07:29:30.152Z,1029.92
2018-09-01T07:30:30.318Z,1032.02
2018-09-01T07:31:30.633Z,1033.05
2018-09-01T07:32:30.228Z,1032.13
2018-09-01T07:33:30.249Z,1032.77
2018-09-01T07:34:30.276Z,1033.95
2018-09-01T07:35:30.306Z,1034.81
2018-09-01T07:36:30.329Z,1034.70
2018-09-01T07:37:30.355Z,1032.45
2018-09-01T07:38:30.380Z,1034.09
2018-09-01T07:39:30.407Z,1036.75
2018-09-01T07:40:30.437Z,1035.63
2018-09-01T07:41:30.473Z,1035.05
2018-09-01T07:42:30.487Z,1035.89
2018-09-01T07:43:30.513Z,1036.29
2018-09-01T07:44:30.537Z,1035.05
2018-09-01T07:45:30.563Z,1033.84
2018-09-01T07:46:30.593Z,1035.52
2018-09-01T07:47:30.617Z,1034.41
2018-09-01T07:48:30.643Z,1033.78
2018-09-01T07:49:30.665Z,1033.88
2018-09-01T07:50:30.698Z,1033.48
2018-09-01T07:51:30.720Z,1034.24
2018-09-01T07:52:30.748Z,1034.80
2018-09-01T07:53:30.777Z,1033.45
2018-09-01T07:54:30.831Z,1032.62
2018-09-01T07:55:30.829Z,1031.70
2018-09-01T07:56:30.852Z,1030.22
2018-09-01T07:57:30.881Z,1030.38
2018-09-01T07:58:30.906Z,1031.61
2018-09-01T07:59:30.929Z,1033.12
2018-09-01T08:00:31.003Z,1034.25
2018-09-01T08:01:30.984Z,1032.92
2018-09-01T08:02:31.010Z,1032.20
2018-09-01T08:03:31.045Z,1032.84
2018-09-01T08:04:31.066Z,1022.46
2018-09-01T08:05:31.096Z,1014.11
2018-09-01T08:06:31.120Z,1013.83
2018-09-01T08:07:31.183Z,1012.90
2018-09-01T08:08:31.165Z,1012.94
2018-09-01T08:09:31.192Z,1013.19
2018-09-01T08:10:31.227Z,1014.18
2018-09-01T08:11:31.242Z,1027.80
2018-09-01T08:12:31.270Z,1017.35
2018-09-01T08:13:31.300Z,1022.08
2018-09-01T08:14:31.348Z,1013.17
2018-09-01T08:15:31.348Z,1024.36
2018-09-01T08:16:31.368Z,1026.00
2018-09-01T08:17:31.392Z,1024.94
2018-09-01T08:18:31.466Z,1024.02
2018-09-01T08:19:31.442Z,1022.96
2018-09-01T08:20:31.479Z,1022.95
2018-09-01T08:21:31.496Z,1022.42
2018-09-01T08:22:31.526Z,1021.84
2018-09-01T08:23:31.544Z,1021.03
2018-09-01T08:24:31.578Z,1020.86
2018-09-01T08:25:31.769Z,1021.25
2018-09-01T08:26:31.617Z,1020.34
2018-09-01T08:27:31.653Z,1020.66
2018-09-01T08:28:31.665Z,1019.95
2018-09-01T08:29:31.686Z,1014.71
2018-09-01T08:30:31.709Z,1014.32
2018-09-01T08:31:31.735Z,1013.09
2018-09-01T08:32:31.867Z,1013.19
2018-09-01T08:33:31.835Z,1013.38
2018-09-01T08:34:31.810Z,1013.21
2018-09-01T08:35:31.831Z,1013.16
2018-09-01T08:36:31.854Z,1013.12
2018-09-01T08:37:31.878Z,1013.09
2018-09-01T08:38:31.901Z,1013.02
2018-09-01T08:39:31.931Z,1012.95
2018-09-01T08:40:31.948Z,1012.89
2018-09-01T08:41:31.976Z,1013.01
2018-09-01T08:42:31.996Z,1012.96
2018-09-01T08:43:32.019Z,1012.89
2018-09-01T08:44:32.042Z,1013.00
2018-09-01T08:45:32.065Z,1013.05
2018-09-01T08:46:32.091Z,1013.08
2018-09-01T08:47:32.111Z,1012.99
2018-09-01T08:48:32.132Z,1013.05
2018-09-01T08:49:32.160Z,1013.10
2018-09-01T08:50:32.192Z,1012.99
2018-09-01T08:51:32.201Z,1012.93
2018-09-01T08:52:32.226Z,1012.93
2018-09-01T08:53:32.264Z,1013.11
2018-09-01T08:54:32.271Z,1013.10
2018-09-01T08:55:32.291Z,1013.02
2018-09-01T08:56:32.329Z,1013.08
2018-09-01T08:57:32.336Z,1012.97
2018-09-01T08:58:32.361Z,1012.94
2018-09-01T08:59:32.386Z,1012.92
2018-09-01T09:00:32.409Z,1012.92
2018-09-01T09:01:32.429Z,1012.94
2018-09-01T09:02:32.450Z,1012.93
2018-09-01T09:03:32.490Z,1012.95
2018-09-01T09:04:32.498Z,1012.85
2018-09-01T09:05:32.532Z,1012.92
2018-09-01T09:06:32.539Z,1012.90
2018-09-01T09:07:32.566Z,1013.02
2018-09-01T09:08:32.580Z,1013.06
2018-09-01T09:09:32.604Z,1012.98
2018-09-01T09:10:32.627Z,1012.97
2018-09-01T09:11:32.668Z,1012.92
2018-09-01T09:12:32.676Z,1012.84
2018-09-01T09:13:32.693Z,1012.91
2018-09-01T09:14:32.720Z,1012.90
2018-09-01T09:15:32.735Z,1012.90
2018-09-01T09:16:32.759Z,1012.90
2018-09-01T09:17:32.780Z,1012.89
2018-09-01T09:18:32.855Z,1012.86
2018-09-01T09:19:32.986Z,1012.84
2018-09-01T09:20:32.846Z,1012.86
2018-09-01T09:21:32.865Z,1012.84
2018-09-01T09:22:32.890Z,1012.85
2018-09-01T09:23:32.913Z,1012.95
2018-09-01T09:24:32.933Z,1013.06
2018-09-01T09:25:33.007Z,1013.12
2018-09-01T09:26:32.982Z,1013.17
2018-09-01T09:27:32.996Z,1013.11
2018-09-01T09:28:33.019Z,1012.90
2018-09-01T09:29:33.042Z,1012.83
2018-09-01T09:30:33.071Z,1012.79
2018-09-01T09:31:33.088Z,1012.80
2018-09-01T09:32:33.140Z,1012.85
2018-09-01T09:33:33.130Z,1013.00
2018-09-01T09:34:33.188Z,1012.89
2018-09-01T09:35:33.199Z,1012.78
2018-09-01T09:36:33.196Z,1012.87
2018-09-01T09:37:33.221Z,1012.83
2018-09-01T09:38:33.240Z,1012.82
2018-09-01T09:39:33.261Z,1012.83
2018-09-01T09:40:33.301Z,1012.66
2018-09-01T09:41:33.303Z,1012.63
2018-09-01T09:42:33.329Z,1012.73
2018-09-01T09:43:33.357Z,1012.67
2018-09-01T09:44:33.380Z,1012.56
2018-09-01T09:45:33.394Z,1012.59
2018-09-01T09:46:33.435Z,1012.68
2018-09-01T09:47:33.439Z,1012.79
2018-09-01T09:48:33.489Z,1012.81
2018-09-01T09:49:33.486Z,1012.77
2018-09-01T09:50:33.525Z,1012.80
2018-09-01T09:51:33.517Z,1012.83
2018-09-01T09:52:33.539Z,1012.79
2018-09-01T09:53:33.558Z,1012.72
2018-09-01T09:54:33.593Z,1012.66
2018-09-01T09:55:33.619Z,1012.68
2018-09-01T09:56:33.627Z,1012.68
2018-09-01T09:57:33.661Z,1012.63
2018-09-01T09:58:33.697Z,1012.64
2018-09-01T09:59:33.687Z,1012.66
2018-09-01T10:00:33.712Z,1012.59
2018-09-01T10:01:33.782Z,1012.54
2018-09-01T10:02:33.754Z,1012.55
2018-09-01T10:03:33.774Z,1012.52
2018-09-01T10:04:33.794Z,1012.46
2018-09-01T10:05:33.871Z,1012.49
2018-09-01T10:06:33.836Z,1012.46
2018-09-01T10:07:33.862Z,1012.45
2018-09-01T10:08:33.884Z,1012.41
2018-09-01T10:09:33.899Z,1012.42
2018-09-01T10:10:33.965Z,1012.34
2018-09-01T10:11:33.951Z,1012.37
2018-09-01T10:12:33.967Z,1012.35
2018-09-01T10:13:33.983Z,1012.35
2018-09-01T10:14:34.012Z,1012.36
2018-09-01T10:15:34.078Z,1012.31
2018-09-01T10:16:34.067Z,1012.31
2018-09-01T10:17:34.074Z,1012.29
2018-09-01T10:18:34.089Z,1012.35
2018-09-01T10:19:34.118Z,1012.36
2018-09-01T10:20:34.190Z,1012.34
2018-09-01T10:21:34.163Z,1012.41
2018-09-01T10:22:34.188Z,1012.36
2018-09-01T10:23:34.202Z,1012.27
2018-09-01T10:24:34.217Z,1012.28
2018-09-01T10:25:34.243Z,1012.27
2018-09-01T10:26:34.264Z,1012.21
2018-09-01T10:27:34.308Z,1012.21
2018-09-01T10:28:34.305Z,1012.27
2018-09-01T10:29:34.323Z,1012.18
2018-09-01T10:30:34.345Z,1012.19
2018-09-01T10:31:34.365Z,1012.15
2018-09-01T10:32:34.388Z,1012.17
2018-09-01T10:33:34.414Z,1012.15
2018-09-01T10:34:34.429Z,1012.12
2018-09-01T10:35:34.450Z,1012.09
2018-09-01T10:36:34.489Z,1012.08
2018-09-01T10:37:34.500Z,1012.03
2018-09-01T10:38:34.610Z,1012.05
2018-09-01T10:39:34.535Z,1012.07
2018-09-01T10:40:34.564Z,1012.04
2018-09-01T10:41:34.582Z,1012.09
2018-09-01T10:42:34.600Z,1012.12
2018-09-01T10:43:34.696Z,1012.10
2018-09-01T10:44:34.656Z,1012.03
2018-09-01T10:45:34.662Z,1012.05
2018-09-01T10:46:34.688Z,1012.07
2018-09-01T10:47:34.710Z,1012.14
2018-09-01T10:48:34.733Z,1012.15
2018-09-01T10:49:34.757Z,1012.16
2018-09-01T10:50:34.773Z,1012.24
2018-09-01T10:51:34.794Z,1012.19
2018-09-01T10:52:34.820Z,1012.14
2018-09-01T10:53:34.859Z,1012.17
2018-09-01T10:54:34.867Z,1012.15
2018-09-01T10:55:34.884Z,1012.14
2018-09-01T10:56:34.906Z,1012.04
2018-09-01T10:57:34.927Z,1012.08
2018-09-01T10:58:34.945Z,1011.99
2018-09-01T10:59:35.078Z,1011.97
2018-09-01T11:00:34.989Z,1011.95
2018-09-01T11:01:35.013Z,1011.90
2018-09-01T11:02:35.040Z,1011.93
2018-09-01T11:03:35.061Z,1011.88
2018-09-01T11:04:35.077Z,1011.92
2018-09-01T11:05:35.126Z,1011.84
2018-09-01T11:06:35.122Z,1011.90
2018-09-01T11:07:35.148Z,1011.91
2018-09-01T11:08:35.167Z,1011.89
2018-09-01T11:09:35.190Z,1011.87
2018-09-01T11:10:35.207Z,1011.97
2018-09-01T11:11:35.265Z,1011.93
2018-09-01T11:12:35.252Z,1011.90
2018-09-01T11:13:35.272Z,1011.95
2018-09-01T11:14:35.292Z,1011.96
2018-09-01T11:15:35.316Z,1011.89
2018-09-01T11:16:35.338Z,1011.82
2018-09-01T11:17:35.357Z,1011.82
2018-09-01T11:18:35.385Z,1011.78
2018-09-01T11:19:35.405Z,1011.74
2018-09-01T11:20:35.439Z,1011.70
2018-09-01T11:21:35.489Z,1011.71
2018-09-01T11:22:35.470Z,1011.74
2018-09-01T11:23:35.492Z,1011.67
2018-09-01T11:24:35.511Z,1011.64
2018-09-01T11:25:35.534Z,1011.71
2018-09-01T11:26:35.556Z,1011.73
2018-09-01T11:27:35.660Z,1011.75
2018-09-01T11:28:35.601Z,1011.75
2018-09-01T11:29:35.623Z,1011.79
2018-09-01T11:30:35.641Z,1011.82
2018-09-01T11:31:35.673Z,1011.85
2018-09-01T11:32:35.703Z,1011.80
2018-09-01T11:33:35.714Z,1011.73
2018-09-01T11:34:35.751Z,1011.72
2018-09-01T11:35:35.754Z,1011.71
2018-09-01T11:36:35.811Z,1011.67
2018-09-01T11:37:35.797Z,1011.69
2018-09-01T11:38:35.829Z,1011.67
2018-09-01T11:39:35.837Z,1011.64
2018-09-01T11:40:35.903Z,1011.70
2018-09-01T11:41:35.880Z,1011.69
2018-09-01T11:42:35.967Z,1011.63
2018-09-01T11:43:35.925Z,1011.60
2018-09-01T11:44:35.947Z,1011.62
2018-09-01T11:45:35.966Z,1011.62
2018-09-01T11:46:36.005Z,1011.68
2018-09-01T11:47:36.011Z,1011.67
2018-09-01T11:48:36.082Z,1011.66
2018-09-01T11:49:36.057Z,1011.68
2018-09-01T11:50:36.075Z,1011.72
2018-09-01T11:51:36.104Z,1011.69
2018-09-01T11:52:36.121Z,1011.66
2018-09-01T11:53:36.194Z,1011.62
2018-09-01T11:54:36.162Z,1011.68
2018-09-01T11:55:36.184Z,1011.66
2018-09-01T11:56:36.207Z,1011.64
2018-09-01T11:57:36.228Z,1011.74
2018-09-01T11:58:36.339Z,1011.75
2018-09-01T11:59:36.281Z,1011.70
2018-09-01T12:00:36.296Z,1011.65
2018-09-01T12:01:36.321Z,1011.66
2018-09-01T12:02:36.347Z,1011.67
2018-09-01T12:03:36.372Z,1011.64
2018-09-01T12:04:36.385Z,1011.67
2018-09-01T12:05:36.407Z,1011.69